createdAt,value
2019-05-28T00:01:47.114Z,16.20
2019-05-28T00:04:29.363Z,16.20
2019-05-28T00:07:18.019Z,16.20
2019-05-28T00:10:06.306Z,16.10
2019-05-28T00:12:41.566Z,16.10
2019-05-28T00:15:29.826Z,16.20
2019-05-28T00:18:05.511Z,16.10
2019-05-28T00:20:54.892Z,16.20
2019-05-28T00:23:30.967Z,16.10
2019-05-28T00:26:19.297Z,16.20
2019-05-28T00:29:09.222Z,16.20
2019-05-28T00:31:45.213Z,16.20
2019-05-28T00:34:34.285Z,16.30
2019-05-28T00:37:09.806Z,16.30
2019-05-28T00:40:01.811Z,16.30
2019-05-28T00:42:41.574Z,16.30
2019-05-28T00:45:30.995Z,16.30
2019-05-28T00:48:19.805Z,16.20
2019-05-28T00:51:16.167Z,16.20
2019-05-28T00:54:12.107Z,16.30
2019-05-28T00:57:08.157Z,16.20
2019-05-28T00:59:57.115Z,16.20
2019-05-28T01:02:32.626Z,16.20
2019-05-28T01:05:23.403Z,16.20
2019-05-28T01:08:05.848Z,16.10
2019-05-28T01:11:02.366Z,16.10
2019-05-28T01:13:58.266Z,16.10
2019-05-28T01:16:48.105Z,16.00
2019-05-28T01:19:23.428Z,16.00
2019-05-28T01:22:12.523Z,16.00
2019-05-28T01:24:48.699Z,15.90
2019-05-28T01:27:37.673Z,15.90
2019-05-28T01:30:13.276Z,15.90
2019-05-28T01:33:02.697Z,15.90
2019-05-28T01:35:44.807Z,15.90
2019-05-28T01:38:27.771Z,15.90
2019-05-28T01:41:16.734Z,15.90
2019-05-28T01:43:52.083Z,16.00
2019-05-28T01:46:41.441Z,16.00
2019-05-28T01:49:31.194Z,16.00
2019-05-28T01:52:26.258Z,15.90
2019-05-28T01:55:15.625Z,15.90
2019-05-28T01:58:04.289Z,15.90
2019-05-28T02:00:47.360Z,15.80
2019-05-28T02:03:29.947Z,15.80
2019-05-28T02:06:11.887Z,15.80
2019-05-28T02:09:00.908Z,15.90
2019-05-28T02:11:56.253Z,15.80
2019-05-28T02:14:45.040Z,15.80
2019-05-28T02:17:21.022Z,15.80
2019-05-28T02:20:11.653Z,15.80
2019-05-28T02:22:47.668Z,15.80
2019-05-28T02:25:36.718Z,15.80
2019-05-28T02:28:25.798Z,15.80
2019-05-28T02:31:08.027Z,15.80
2019-05-28T02:33:50.936Z,15.90
2019-05-28T02:36:32.647Z,15.90
2019-05-28T02:39:15.674Z,15.90
2019-05-28T02:41:57.477Z,15.90
2019-05-28T02:44:39.606Z,15.90
2019-05-28T02:47:21.626Z,15.80
2019-05-28T02:50:19.374Z,15.90
2019-05-28T02:53:14.415Z,15.90
2019-05-28T02:56:03.874Z,15.80
2019-05-28T02:58:46.208Z,15.80
2019-05-28T03:01:43.072Z,15.80
2019-05-28T03:04:13.211Z,15.80
2019-05-28T03:06:57.117Z,15.80
2019-05-28T03:09:38.749Z,15.80
2019-05-28T03:12:27.865Z,15.80
2019-05-28T03:15:09.894Z,15.70
2019-05-28T03:18:05.812Z,15.70
2019-05-28T03:21:00.454Z,15.70
2019-05-28T03:23:50.565Z,15.70
2019-05-28T03:26:26.008Z,15.60
2019-05-28T03:29:15.814Z,15.60
2019-05-28T03:32:06.946Z,15.70
2019-05-28T03:34:47.231Z,15.70
2019-05-28T03:37:23.662Z,15.70
2019-05-28T03:40:13.477Z,15.70
2019-05-28T03:42:56.459Z,15.70
2019-05-28T03:45:39.291Z,15.80
2019-05-28T03:48:22.536Z,15.80
2019-05-28T03:51:04.935Z,15.80
2019-05-28T03:53:47.353Z,15.80
2019-05-28T03:56:30.517Z,15.80
2019-05-28T03:59:12.412Z,15.80
2019-05-28T04:01:54.438Z,15.90
2019-05-28T04:04:43.497Z,15.80
2019-05-28T04:07:18.808Z,15.80
2019-05-28T04:10:07.377Z,15.80
2019-05-28T04:12:43.311Z,15.90
2019-05-28T04:15:32.202Z,15.90
2019-05-28T04:18:07.386Z,15.90
2019-05-28T04:20:56.001Z,15.80
2019-05-28T04:23:41.587Z,15.90
2019-05-28T04:26:22.197Z,15.80
2019-05-28T04:29:04.270Z,15.70
2019-05-28T04:31:54.238Z,15.70
2019-05-28T04:34:36.492Z,15.80
2019-05-28T04:37:24.978Z,15.80
2019-05-28T04:40:00.977Z,15.80
2019-05-28T04:42:49.514Z,15.80
2019-05-28T04:45:25.235Z,15.80
2019-05-28T04:48:13.588Z,15.90
2019-05-28T04:51:02.332Z,15.90
2019-05-28T04:53:51.529Z,15.90
2019-05-28T04:56:27.213Z,15.90
2019-05-28T04:59:15.864Z,15.90
2019-05-28T05:01:59.266Z,15.90
2019-05-28T05:04:41.764Z,16.00
2019-05-28T05:07:30.114Z,15.90
2019-05-28T05:10:13.421Z,16.00
2019-05-28T05:13:02.145Z,16.00
2019-05-28T05:15:37.679Z,16.10
2019-05-28T05:18:26.165Z,16.00
2019-05-28T05:21:02.252Z,16.10
2019-05-28T05:23:51.094Z,16.10
2019-05-28T05:26:27.410Z,16.10
2019-05-28T05:29:16.306Z,16.10
2019-05-28T05:31:59.480Z,16.10
2019-05-28T05:34:41.171Z,16.20
2019-05-28T05:37:23.010Z,16.20
2019-05-28T05:40:11.875Z,16.30
2019-05-28T05:43:09.457Z,16.30
2019-05-28T05:46:04.176Z,16.40
2019-05-28T05:48:53.081Z,16.40
2019-05-28T05:51:35.287Z,16.40
2019-05-28T05:54:24.421Z,16.40
2019-05-28T05:57:00.924Z,16.40
2019-05-28T05:59:50.373Z,16.50
2019-05-28T06:02:26.202Z,16.60
2019-05-28T06:05:16.218Z,16.60
2019-05-28T06:07:58.492Z,16.60
2019-05-28T06:10:41.297Z,16.70
2019-05-28T06:13:30.378Z,16.70
2019-05-28T06:16:13.012Z,16.80
2019-05-28T06:18:55.773Z,16.70
2019-05-28T06:21:37.450Z,16.70
2019-05-28T06:24:19.300Z,16.60
2019-05-28T06:27:02.341Z,16.60
2019-05-28T06:29:44.494Z,16.60
2019-05-28T06:32:36.375Z,16.70
2019-05-28T06:35:19.497Z,16.80
2019-05-28T06:38:01.555Z,16.80
2019-05-28T06:40:50.733Z,16.80
2019-05-28T06:43:46.029Z,16.90
2019-05-28T06:46:41.809Z,16.90
2019-05-28T06:49:37.283Z,16.90
2019-05-28T06:52:33.743Z,16.90
2019-05-28T06:55:29.996Z,16.90
2019-05-28T06:58:38.788Z,17.00
2019-05-28T07:01:15.631Z,17.00
2019-05-28T07:03:51.656Z,17.00
2019-05-28T07:06:40.860Z,17.10
2019-05-28T07:09:16.678Z,17.10
2019-05-28T07:12:06.177Z,17.10
2019-05-28T07:14:41.865Z,17.10
2019-05-28T07:17:31.039Z,17.20
2019-05-28T07:20:07.551Z,17.20
2019-05-28T07:22:56.538Z,17.20
2019-05-28T07:25:32.328Z,17.30
2019-05-28T07:28:20.763Z,17.30
2019-05-28T07:30:55.944Z,17.30
2019-05-28T07:33:45.320Z,17.30
2019-05-28T07:36:22.011Z,17.30
2019-05-28T07:39:12.523Z,17.40
2019-05-28T07:41:48.081Z,17.50
2019-05-28T07:44:37.529Z,17.60
2019-05-28T07:47:20.488Z,17.70
2019-05-28T07:50:10.900Z,17.80
2019-05-28T07:52:53.153Z,17.90
2019-05-28T07:55:48.208Z,18.00
2019-05-28T07:58:38.159Z,18.00
2019-05-28T08:01:14.206Z,18.10
2019-05-28T08:04:03.515Z,18.30
2019-05-28T08:06:53.771Z,18.40
2019-05-28T08:09:30.493Z,18.50
2019-05-28T08:12:08.251Z,18.70
2019-05-28T08:14:56.637Z,18.70
2019-05-28T08:17:32.697Z,18.90
2019-05-28T08:20:22.075Z,19.00
2019-05-28T08:23:05.316Z,19.00
2019-05-28T08:25:54.826Z,19.00
2019-05-28T08:28:36.995Z,19.10
2019-05-28T08:31:33.233Z,19.00
2019-05-28T08:34:28.771Z,19.00
2019-05-28T08:37:17.015Z,19.00
2019-05-28T08:39:55.068Z,19.10
2019-05-28T08:42:44.790Z,19.10
2019-05-28T08:45:29.299Z,19.20
2019-05-28T08:48:11.263Z,19.20
2019-05-28T08:51:00.307Z,19.30
2019-05-28T08:53:48.837Z,19.30
2019-05-28T08:56:38.192Z,19.20
2019-05-28T08:59:14.238Z,19.20
2019-05-28T09:02:02.409Z,19.30
2019-05-28T09:04:45.078Z,19.20
2019-05-28T09:07:40.757Z,19.30
2019-05-28T09:10:32.313Z,19.30
2019-05-28T09:13:15.737Z,19.20
2019-05-28T09:16:04.928Z,19.30
2019-05-28T09:18:40.221Z,19.30
2019-05-28T09:21:29.537Z,19.20
2019-05-28T09:24:11.970Z,19.20
2019-05-28T09:27:01.233Z,19.20
2019-05-28T09:29:45.001Z,19.20
2019-05-28T09:32:33.295Z,19.10
2019-05-28T09:35:09.542Z,19.10
2019-05-28T09:37:58.417Z,19.20
2019-05-28T09:40:49.878Z,19.20
2019-05-28T09:43:24.330Z,19.20
2019-05-28T09:46:15.271Z,19.30
2019-05-28T09:48:50.374Z,19.30
2019-05-28T09:51:39.939Z,19.40
2019-05-28T09:54:22.783Z,19.50
2019-05-28T09:57:04.765Z,19.60
2019-05-28T09:59:47.872Z,19.70
2019-05-28T10:02:36.839Z,19.70
2019-05-28T10:05:19.673Z,19.70
2019-05-28T10:08:01.905Z,19.80
2019-05-28T10:10:44.206Z,19.80
2019-05-28T10:13:38.132Z,19.80
2019-05-28T10:16:15.477Z,19.90
2019-05-28T10:18:51.458Z,19.90
2019-05-28T10:21:40.173Z,20.00
2019-05-28T10:24:16.192Z,20.00
2019-05-28T10:27:04.977Z,20.10
2019-05-28T10:29:40.093Z,20.10
2019-05-28T10:32:29.349Z,20.20
2019-05-28T10:35:05.552Z,20.10
2019-05-28T10:37:55.845Z,20.30
2019-05-28T10:40:44.389Z,20.30
2019-05-28T10:43:40.095Z,20.30
2019-05-28T10:46:37.148Z,20.50
2019-05-28T10:49:32.611Z,20.50
2019-05-28T10:52:30.365Z,20.60
2019-05-28T10:55:26.561Z,20.50
2019-05-28T10:58:14.897Z,20.70
2019-05-28T11:00:50.343Z,20.70
2019-05-28T11:03:39.488Z,20.70
2019-05-28T11:06:15.593Z,20.60
2019-05-28T11:09:08.632Z,20.60
2019-05-28T11:11:41.613Z,20.70
2019-05-28T11:14:30.551Z,20.60
2019-05-28T11:17:19.550Z,20.50
2019-05-28T11:19:55.210Z,20.50
2019-05-28T11:22:43.862Z,20.50
2019-05-28T11:25:19.846Z,20.50
2019-05-28T11:28:09.435Z,20.50
2019-05-28T11:30:45.591Z,20.50
2019-05-28T11:33:34.354Z,20.50
2019-05-28T11:36:10.201Z,20.50
2019-05-28T11:39:01.049Z,20.70
2019-05-28T11:41:41.944Z,20.70
2019-05-28T11:44:28.138Z,20.90
2019-05-28T11:47:18.873Z,20.90
2019-05-28T11:50:00.794Z,20.90
2019-05-28T11:52:43.408Z,21.00
2019-05-28T11:55:40.002Z,21.00
2019-05-28T11:58:35.799Z,21.20
2019-05-28T12:01:34.622Z,21.10
2019-05-28T12:04:03.017Z,21.10
2019-05-28T12:06:51.898Z,21.00
2019-05-28T12:09:34.754Z,21.00
2019-05-28T12:12:30.898Z,20.90
2019-05-28T12:15:23.749Z,20.80
2019-05-28T12:18:12.949Z,20.70
2019-05-28T12:20:54.712Z,20.70
2019-05-28T12:23:36.882Z,20.60
2019-05-28T12:26:19.778Z,20.50
2019-05-28T12:29:01.459Z,20.50
2019-05-28T12:31:44.036Z,20.60
2019-05-28T12:34:26.348Z,20.70
2019-05-28T12:37:08.812Z,20.80
2019-05-28T12:40:04.004Z,20.90
2019-05-28T12:43:00.274Z,21.10
2019-05-28T12:45:41.858Z,21.10
2019-05-28T12:48:31.224Z,21.20
2019-05-28T12:51:07.321Z,21.20
2019-05-28T12:53:55.876Z,21.20
2019-05-28T12:56:38.086Z,21.10
2019-05-28T12:59:20.317Z,21.10
2019-05-28T13:02:04.585Z,21.10
2019-05-28T13:04:55.781Z,21.20
2019-05-28T13:07:37.903Z,21.20
2019-05-28T13:10:27.652Z,21.20
2019-05-28T13:13:03.402Z,21.30
2019-05-28T13:15:51.900Z,21.50
2019-05-28T13:18:48.169Z,21.50
2019-05-28T13:21:37.226Z,21.50
2019-05-28T13:24:13.044Z,21.50
2019-05-28T13:27:17.028Z,21.70
2019-05-28T13:29:39.810Z,21.70
2019-05-28T13:32:28.062Z,21.60
2019-05-28T13:35:03.678Z,21.60
2019-05-28T13:37:53.114Z,21.60
2019-05-28T13:40:36.559Z,21.70
2019-05-28T13:43:32.721Z,21.70
2019-05-28T13:46:22.378Z,21.80
2019-05-28T13:49:10.567Z,21.90
2019-05-28T13:51:52.986Z,21.90
2019-05-28T13:54:45.958Z,22.10
2019-05-28T13:57:39.229Z,22.00
2019-05-28T14:00:27.983Z,21.90
2019-05-28T14:03:17.954Z,21.90
2019-05-28T14:05:53.545Z,21.80
2019-05-28T14:08:47.221Z,21.70
2019-05-28T14:11:19.146Z,21.50
2019-05-28T14:14:08.897Z,21.40
2019-05-28T14:16:51.320Z,21.40
2019-05-28T14:19:40.474Z,21.40
2019-05-28T14:22:34.119Z,21.50
2019-05-28T14:25:14.142Z,21.50
2019-05-28T14:28:09.578Z,21.60
2019-05-28T14:31:04.710Z,21.70
2019-05-28T14:33:47.020Z,21.80
2019-05-28T14:36:28.930Z,21.90
2019-05-28T14:39:12.338Z,21.90
2019-05-28T14:41:54.632Z,21.90
2019-05-28T14:44:31.052Z,21.90
2019-05-28T14:47:20.187Z,21.80
2019-05-28T14:50:01.998Z,21.70
2019-05-28T14:52:44.770Z,21.80
2019-05-28T14:55:27.982Z,21.90
2019-05-28T14:58:13.789Z,21.90
2019-05-28T15:00:54.933Z,21.90
2019-05-28T15:03:37.276Z,22.00
2019-05-28T15:06:19.534Z,21.90
2019-05-28T15:09:18.898Z,21.80
2019-05-28T15:11:51.839Z,21.70
2019-05-28T15:14:27.425Z,21.70
2019-05-28T15:17:15.721Z,21.60
2019-05-28T15:19:51.426Z,21.60
2019-05-28T15:22:40.900Z,21.60
2019-05-28T15:25:24.250Z,21.60
2019-05-28T15:28:07.430Z,21.60
2019-05-28T15:30:49.928Z,21.50
2019-05-28T15:33:39.352Z,21.60
2019-05-28T15:36:15.538Z,21.50
2019-05-28T15:39:04.591Z,21.50
2019-05-28T15:41:41.934Z,21.50
2019-05-28T15:44:30.918Z,21.40
2019-05-28T15:47:12.882Z,21.40
2019-05-28T15:50:02.487Z,21.40
2019-05-28T15:52:38.422Z,21.40
2019-05-28T15:55:29.457Z,21.40
2019-05-28T15:58:05.415Z,21.40
2019-05-28T16:00:57.169Z,21.40
2019-05-28T16:03:35.158Z,21.40
2019-05-28T16:06:26.153Z,21.40
2019-05-28T16:09:02.073Z,21.30
2019-05-28T16:11:53.057Z,21.40
2019-05-28T16:14:30.231Z,21.30
2019-05-28T16:17:19.874Z,21.40
2019-05-28T16:20:02.123Z,21.40
2019-05-28T16:22:44.747Z,21.40
2019-05-28T16:25:27.080Z,21.30
2019-05-28T16:28:09.629Z,21.30
2019-05-28T16:31:11.210Z,21.20
2019-05-28T16:33:37.189Z,21.30
2019-05-28T16:36:19.334Z,21.20
2019-05-28T16:39:08.038Z,21.20
2019-05-28T16:41:43.989Z,21.10
2019-05-28T16:44:35.104Z,21.20
2019-05-28T16:47:16.688Z,21.20
2019-05-28T16:50:01.779Z,21.10
2019-05-28T16:52:37.810Z,21.00
2019-05-28T16:55:27.502Z,21.10
2019-05-28T16:58:10.480Z,20.80
2019-05-28T17:04:21.660Z,19.50
2019-05-28T17:07:11.374Z,19.50
2019-05-28T17:09:47.806Z,19.50
2019-05-28T17:12:37.818Z,19.40
2019-05-28T17:15:13.421Z,19.40
2019-05-28T17:18:01.967Z,19.50
2019-05-28T17:20:58.408Z,19.20
2019-05-28T17:23:48.424Z,19.10
2019-05-28T17:26:31.289Z,19.00
2019-05-28T17:29:19.636Z,19.00
2019-05-28T17:32:02.337Z,19.10
2019-05-28T17:34:50.753Z,19.10
2019-05-28T17:37:32.679Z,19.00
2019-05-28T17:40:28.651Z,18.90
2019-05-28T17:43:18.224Z,18.70
2019-05-28T17:46:01.227Z,18.70
2019-05-28T17:48:56.313Z,18.60
2019-05-28T17:51:47.981Z,18.40
2019-05-28T17:54:23.390Z,18.50
2019-05-28T17:57:12.590Z,18.40
2019-05-28T17:59:48.352Z,18.50
2019-05-28T18:02:37.938Z,18.40
2019-05-28T18:05:13.632Z,18.40
2019-05-28T18:08:02.589Z,18.30
2019-05-28T18:10:45.310Z,18.10
2019-05-28T18:13:41.124Z,18.00
2019-05-28T18:16:28.993Z,17.90
2019-05-28T18:19:11.304Z,17.90
2019-05-28T18:22:03.150Z,17.90
2019-05-28T18:24:45.744Z,17.80
2019-05-28T18:27:27.811Z,17.80
2019-05-28T18:30:11.351Z,17.90
2019-05-28T18:32:53.755Z,17.70
2019-05-28T18:35:35.820Z,17.60
2019-05-28T18:38:18.471Z,17.60
2019-05-28T18:41:21.460Z,17.50
2019-05-28T18:44:11.369Z,17.40
2019-05-28T18:47:07.325Z,17.40
2019-05-28T18:50:02.682Z,17.30
2019-05-28T18:52:35.183Z,17.20
2019-05-28T18:55:25.111Z,17.20
2019-05-28T18:58:01.293Z,17.00
2019-05-28T19:00:50.295Z,17.00
2019-05-28T19:03:32.414Z,17.00
2019-05-28T19:06:28.487Z,16.90
2019-05-28T19:09:23.514Z,16.70
2019-05-28T19:12:18.472Z,16.70
2019-05-28T19:14:53.952Z,16.70
2019-05-28T19:17:45.181Z,16.60
2019-05-28T19:20:30.566Z,16.60
2019-05-28T19:23:25.667Z,16.50
2019-05-28T19:26:15.759Z,16.50
2019-05-28T19:28:51.199Z,16.60
2019-05-28T19:31:42.106Z,16.70
2019-05-28T19:34:17.345Z,16.60
2019-05-28T19:37:08.066Z,16.60
2019-05-28T19:39:43.674Z,16.50
2019-05-28T19:42:32.991Z,16.50
2019-05-28T19:45:15.227Z,16.50
2019-05-28T19:48:11.555Z,16.40
2019-05-28T19:51:02.844Z,16.50
2019-05-28T19:53:38.446Z,16.60
2019-05-28T19:56:28.030Z,16.60
2019-05-28T19:59:04.041Z,16.70
2019-05-28T20:01:57.799Z,16.60
2019-05-28T20:04:40.731Z,16.60
2019-05-28T20:07:36.876Z,16.60
2019-05-28T20:10:34.063Z,16.60
2019-05-28T20:13:29.201Z,16.70
2019-05-28T20:16:25.919Z,16.70
2019-05-28T20:19:15.293Z,16.70
2019-05-28T20:21:53.599Z,16.70
2019-05-28T20:24:41.816Z,16.80
2019-05-28T20:27:17.419Z,16.80
2019-05-28T20:30:07.198Z,16.70
2019-05-28T20:32:43.340Z,16.70
2019-05-28T20:35:32.599Z,16.70
2019-05-28T20:38:12.259Z,16.70
2019-05-28T20:41:00.013Z,16.80
2019-05-28T20:43:49.990Z,16.80
2019-05-28T20:46:45.382Z,16.80
2019-05-28T20:49:33.823Z,16.90
2019-05-28T20:52:15.897Z,16.80
2019-05-28T20:55:05.266Z,16.80
2019-05-28T20:57:53.402Z,16.80
2019-05-28T21:00:36.520Z,16.80
2019-05-28T21:03:19.191Z,16.70
2019-05-28T21:06:01.229Z,16.70
2019-05-28T21:08:58.308Z,16.70
2019-05-28T21:11:48.248Z,16.60
2019-05-28T21:14:30.482Z,16.60
2019-05-28T21:17:25.646Z,16.60
2019-05-28T21:20:14.863Z,16.60
2019-05-28T21:22:50.077Z,16.50
2019-05-28T21:25:39.039Z,16.50
2019-05-28T21:28:14.733Z,16.60
2019-05-28T21:31:05.018Z,16.60
2019-05-28T21:33:47.007Z,16.60
2019-05-28T21:36:42.471Z,16.60
2019-05-28T21:39:30.821Z,16.60
2019-05-28T21:42:13.444Z,16.50
2019-05-28T21:45:08.622Z,16.50
2019-05-28T21:47:56.838Z,16.40
2019-05-28T21:50:32.718Z,16.40
2019-05-28T21:53:22.082Z,16.30
2019-05-28T21:56:04.149Z,16.40
2019-05-28T21:58:46.889Z,16.40
2019-05-28T22:01:37.268Z,16.50
2019-05-28T22:04:19.318Z,16.50
2019-05-28T22:07:08.342Z,16.50
2019-05-28T22:09:51.016Z,16.50
2019-05-28T22:12:39.743Z,16.50
2019-05-28T22:15:15.159Z,16.50
2019-05-28T22:18:04.352Z,16.50
2019-05-28T22:20:46.452Z,16.50
2019-05-28T22:23:35.858Z,16.50
2019-05-28T22:26:11.028Z,16.40
2019-05-28T22:28:59.891Z,16.40
2019-05-28T22:31:35.277Z,16.40
2019-05-28T22:34:23.950Z,16.30
2019-05-28T22:37:00.286Z,16.30
2019-05-28T22:39:48.704Z,16.30
2019-05-28T22:42:44.232Z,16.20
2019-05-28T22:45:37.129Z,16.20
2019-05-28T22:48:16.813Z,16.20
2019-05-28T22:51:02.176Z,16.20
2019-05-28T22:53:44.540Z,16.20
2019-05-28T22:56:40.646Z,16.20
2019-05-28T22:59:30.622Z,16.20
2019-05-28T23:02:07.006Z,16.20
2019-05-28T23:04:56.205Z,16.10
2019-05-28T23:07:37.915Z,16.20
2019-05-28T23:10:33.473Z,16.10
2019-05-28T23:13:29.603Z,16.00
2019-05-28T23:16:17.965Z,16.00
2019-05-28T23:19:00.800Z,16.20
2019-05-28T23:21:57.052Z,16.20
2019-05-28T23:24:44.629Z,16.20
2019-05-28T23:27:27.137Z,16.20
2019-05-28T23:30:25.066Z,16.20
2019-05-28T23:33:02.337Z,16.20
2019-05-28T23:35:58.830Z,16.20
2019-05-28T23:38:53.449Z,16.10
2019-05-28T23:41:42.256Z,16.10
2019-05-28T23:44:24.520Z,16.00
2019-05-28T23:47:06.603Z,16.00
2019-05-28T23:49:49.841Z,16.00
2019-05-28T23:52:32.179Z,16.00
2019-05-28T23:55:20.793Z,15.90
2019-05-28T23:58:02.804Z,16.10
